sensor_id;sensor_type;location;lat;lon;timestamp;P1;durP1;ratioP1;P2;durP2;ratioP2
9712;SDS011;4895;50.926;6.870;2023-07-30T00:00:31;3.17;;;2.37;;
9712;SDS011;4895;50.926;6.870;2023-07-30T00:02:56;9.20;;;3.20;;
9712;SDS011;4895;50.926;6.870;2023-07-30T00:05:21;5.90;;;3.13;;
9712;SDS011;4895;50.926;6.870;2023-07-30T00:07:47;7.00;;;3.13;;
9712;SDS011;4895;50.926;6.870;2023-07-30T00:10:12;6.20;;;3.17;;
9712;SDS011;4895;50.926;6.870;2023-07-30T00:12:37;6.90;;;3.30;;
9712;SDS011;4895;50.926;6.870;2023-07-30T00:15:03;3.90;;;3.03;;
9712;SDS011;4895;50.926;6.870;2023-07-30T00:17:28;4.50;;;3.03;;
9712;SDS011;4895;50.926;6.870;2023-07-30T00:19:53;5.33;;;2.87;;
9712;SDS011;4895;50.926;6.870;2023-07-30T00:22:19;3.70;;;2.37;;
9712;SDS011;4895;50.926;6.870;2023-07-30T00:24:44;5.00;;;2.97;;
9712;SDS011;4895;50.926;6.870;2023-07-30T00:27:09;5.70;;;3.00;;
9712;SDS011;4895;50.926;6.870;2023-07-30T00:29:34;7.87;;;3.13;;
9712;SDS011;4895;50.926;6.870;2023-07-30T00:32:00;2.90;;;2.40;;
9712;SDS011;4895;50.926;6.870;2023-07-30T00:34:25;6.33;;;2.70;;
9712;SDS011;4895;50.926;6.870;2023-07-30T00:36:50;5.53;;;3.40;;
9712;SDS011;4895;50.926;6.870;2023-07-30T00:39:15;10.73;;;3.70;;
9712;SDS011;4895;50.926;6.870;2023-07-30T00:41:41;4.30;;;3.00;;
9712;SDS011;4895;50.926;6.870;2023-07-30T00:44:06;4.70;;;3.10;;
9712;SDS011;4895;50.926;6.870;2023-07-30T00:46:32;4.80;;;3.07;;
9712;SDS011;4895;50.926;6.870;2023-07-30T00:48:57;5.70;;;3.23;;
9712;SDS011;4895;50.926;6.870;2023-07-30T00:51:23;5.50;;;2.70;;
9712;SDS011;4895;50.926;6.870;2023-07-30T00:53:49;3.43;;;3.13;;
9712;SDS011;4895;50.926;6.870;2023-07-30T00:56:14;7.50;;;3.10;;
9712;SDS011;4895;50.926;6.870;2023-07-30T00:58:40;6.00;;;2.77;;
9712;SDS011;4895;50.926;6.870;2023-07-30T01:01:06;5.70;;;2.80;;
9712;SDS011;4895;50.926;6.870;2023-07-30T01:03:32;7.77;;;3.07;;
9712;SDS011;4895;50.926;6.870;2023-07-30T01:05:57;4.80;;;2.60;;
9712;SDS011;4895;50.926;6.870;2023-07-30T01:08:22;6.17;;;3.03;;
9712;SDS011;4895;50.926;6.870;2023-07-30T01:10:48;5.47;;;3.30;;
9712;SDS011;4895;50.926;6.870;2023-07-30T01:13:13;6.93;;;2.77;;
9712;SDS011;4895;50.926;6.870;2023-07-30T01:15:40;6.53;;;2.40;;
9712;SDS011;4895;50.926;6.870;2023-07-30T01:18:06;9.13;;;3.40;;
9712;SDS011;4895;50.926;6.870;2023-07-30T01:20:31;7.93;;;2.70;;
9712;SDS011;4895;50.926;6.870;2023-07-30T01:22:58;12.43;;;3.80;;
9712;SDS011;4895;50.926;6.870;2023-07-30T01:25:23;8.90;;;3.10;;
9712;SDS011;4895;50.926;6.870;2023-07-30T01:27:51;10.70;;;2.70;;
9712;SDS011;4895;50.926;6.870;2023-07-30T01:30:18;8.40;;;2.80;;
9712;SDS011;4895;50.926;6.870;2023-07-30T01:32:52;4.93;;;2.83;;
9712;SDS011;4895;50.926;6.870;2023-07-30T01:35:18;6.37;;;3.20;;
9712;SDS011;4895;50.926;6.870;2023-07-30T01:37:46;9.97;;;3.00;;
9712;SDS011;4895;50.926;6.870;2023-07-30T01:40:11;10.87;;;3.40;;
9712;SDS011;4895;50.926;6.870;2023-07-30T01:42:37;3.87;;;2.63;;
9712;SDS011;4895;50.926;6.870;2023-07-30T01:45:03;8.63;;;3.23;;
9712;SDS011;4895;50.926;6.870;2023-07-30T01:47:29;4.37;;;2.67;;
9712;SDS011;4895;50.926;6.870;2023-07-30T01:49:55;3.57;;;2.80;;
9712;SDS011;4895;50.926;6.870;2023-07-30T01:52:20;4.80;;;3.10;;
9712;SDS011;4895;50.926;6.870;2023-07-30T01:54:45;6.80;;;3.40;;
9712;SDS011;4895;50.926;6.870;2023-07-30T01:57:10;8.77;;;3.30;;
9712;SDS011;4895;50.926;6.870;2023-07-30T01:59:37;8.03;;;3.00;;
9712;SDS011;4895;50.926;6.870;2023-07-30T02:02:03;8.40;;;2.83;;
9712;SDS011;4895;50.926;6.870;2023-07-30T02:04:29;5.37;;;3.30;;
9712;SDS011;4895;50.926;6.870;2023-07-30T02:06:54;9.13;;;3.83;;
9712;SDS011;4895;50.926;6.870;2023-07-30T02:09:19;9.43;;;2.97;;
9712;SDS011;4895;50.926;6.870;2023-07-30T02:11:45;7.90;;;3.07;;
9712;SDS011;4895;50.926;6.870;2023-07-30T02:14:10;7.13;;;2.97;;
9712;SDS011;4895;50.926;6.870;2023-07-30T02:16:36;7.07;;;3.37;;
9712;SDS011;4895;50.926;6.870;2023-07-30T02:19:01;8.10;;;3.77;;
9712;SDS011;4895;50.926;6.870;2023-07-30T02:21:26;8.43;;;3.47;;
9712;SDS011;4895;50.926;6.870;2023-07-30T02:23:51;7.23;;;3.40;;
9712;SDS011;4895;50.926;6.870;2023-07-30T02:26:17;5.63;;;2.93;;
9712;SDS011;4895;50.926;6.870;2023-07-30T02:28:42;6.10;;;2.90;;
9712;SDS011;4895;50.926;6.870;2023-07-30T02:31:08;7.73;;;3.30;;
9712;SDS011;4895;50.926;6.870;2023-07-30T02:33:33;11.93;;;2.90;;
9712;SDS011;4895;50.926;6.870;2023-07-30T02:35:58;11.60;;;3.37;;
9712;SDS011;4895;50.926;6.870;2023-07-30T02:38:24;6.67;;;2.47;;
9712;SDS011;4895;50.926;6.870;2023-07-30T02:40:49;8.07;;;3.30;;
9712;SDS011;4895;50.926;6.870;2023-07-30T02:43:14;5.53;;;2.87;;
9712;SDS011;4895;50.926;6.870;2023-07-30T02:45:39;7.57;;;3.03;;
9712;SDS011;4895;50.926;6.870;2023-07-30T02:48:05;13.77;;;3.27;;
9712;SDS011;4895;50.926;6.870;2023-07-30T02:50:30;6.33;;;3.30;;
9712;SDS011;4895;50.926;6.870;2023-07-30T02:52:55;11.70;;;3.23;;
9712;SDS011;4895;50.926;6.870;2023-07-30T02:55:21;9.73;;;3.00;;
9712;SDS011;4895;50.926;6.870;2023-07-30T02:57:46;8.63;;;3.50;;
9712;SDS011;4895;50.926;6.870;2023-07-30T03:00:11;5.30;;;2.90;;
9712;SDS011;4895;50.926;6.870;2023-07-30T03:02:37;6.60;;;3.40;;
9712;SDS011;4895;50.926;6.870;2023-07-30T03:05:02;7.73;;;3.50;;
9712;SDS011;4895;50.926;6.870;2023-07-30T03:07:28;3.97;;;2.20;;
9712;SDS011;4895;50.926;6.870;2023-07-30T03:09:53;8.07;;;2.93;;
9712;SDS011;4895;50.926;6.870;2023-07-30T03:12:18;11.23;;;3.43;;
9712;SDS011;4895;50.926;6.870;2023-07-30T03:14:43;5.33;;;3.13;;
9712;SDS011;4895;50.926;6.870;2023-07-30T03:17:09;9.40;;;3.10;;
9712;SDS011;4895;50.926;6.870;2023-07-30T03:19:34;10.33;;;2.90;;
9712;SDS011;4895;50.926;6.870;2023-07-30T03:21:59;9.87;;;3.83;;
9712;SDS011;4895;50.926;6.870;2023-07-30T03:24:24;11.23;;;3.13;;
9712;SDS011;4895;50.926;6.870;2023-07-30T03:26:50;6.07;;;3.13;;
9712;SDS011;4895;50.926;6.870;2023-07-30T03:29:15;7.50;;;3.27;;
9712;SDS011;4895;50.926;6.870;2023-07-30T03:31:41;7.80;;;3.30;;
9712;SDS011;4895;50.926;6.870;2023-07-30T03:34:06;9.23;;;3.50;;
9712;SDS011;4895;50.926;6.870;2023-07-30T03:36:31;9.00;;;3.00;;
9712;SDS011;4895;50.926;6.870;2023-07-30T03:38:57;9.73;;;2.83;;
9712;SDS011;4895;50.926;6.870;2023-07-30T03:41:22;12.97;;;3.40;;
9712;SDS011;4895;50.926;6.870;2023-07-30T03:43:47;7.53;;;3.50;;
9712;SDS011;4895;50.926;6.870;2023-07-30T03:46:13;8.37;;;3.57;;
9712;SDS011;4895;50.926;6.870;2023-07-30T03:48:38;11.40;;;3.87;;
9712;SDS011;4895;50.926;6.870;2023-07-30T03:51:03;10.03;;;3.73;;
9712;SDS011;4895;50.926;6.870;2023-07-30T03:53:29;7.83;;;3.47;;
9712;SDS011;4895;50.926;6.870;2023-07-30T03:55:54;13.00;;;3.50;;
9712;SDS011;4895;50.926;6.870;2023-07-30T03:58:19;8.50;;;3.60;;
9712;SDS011;4895;50.926;6.870;2023-07-30T04:00:44;12.07;;;3.60;;
9712;SDS011;4895;50.926;6.870;2023-07-30T04:03:10;12.43;;;3.90;;
9712;SDS011;4895;50.926;6.870;2023-07-30T04:05:35;15.77;;;3.70;;
9712;SDS011;4895;50.926;6.870;2023-07-30T04:08:00;10.43;;;3.53;;
9712;SDS011;4895;50.926;6.870;2023-07-30T04:10:25;11.03;;;3.50;;
9712;SDS011;4895;50.926;6.870;2023-07-30T04:12:51;10.30;;;3.60;;
9712;SDS011;4895;50.926;6.870;2023-07-30T04:15:16;13.70;;;3.73;;
9712;SDS011;4895;50.926;6.870;2023-07-30T04:17:41;9.07;;;3.67;;
9712;SDS011;4895;50.926;6.870;2023-07-30T04:20:07;15.30;;;4.33;;
9712;SDS011;4895;50.926;6.870;2023-07-30T04:22:34;9.27;;;3.57;;
9712;SDS011;4895;50.926;6.870;2023-07-30T04:25:00;15.70;;;3.50;;
9712;SDS011;4895;50.926;6.870;2023-07-30T04:27:25;10.23;;;4.17;;
9712;SDS011;4895;50.926;6.870;2023-07-30T04:29:50;9.87;;;3.20;;
9712;SDS011;4895;50.926;6.870;2023-07-30T04:32:16;9.63;;;3.10;;
9712;SDS011;4895;50.926;6.870;2023-07-30T04:34:41;6.20;;;2.80;;
9712;SDS011;4895;50.926;6.870;2023-07-30T04:37:06;8.80;;;3.30;;
9712;SDS011;4895;50.926;6.870;2023-07-30T04:39:32;7.27;;;2.83;;
9712;SDS011;4895;50.926;6.870;2023-07-30T04:41:57;9.73;;;3.13;;
9712;SDS011;4895;50.926;6.870;2023-07-30T04:44:22;6.90;;;2.50;;
9712;SDS011;4895;50.926;6.870;2023-07-30T04:46:48;9.83;;;2.60;;
9712;SDS011;4895;50.926;6.870;2023-07-30T04:49:13;10.87;;;3.03;;
9712;SDS011;4895;50.926;6.870;2023-07-30T04:51:38;11.70;;;2.90;;
9712;SDS011;4895;50.926;6.870;2023-07-30T04:54:04;9.30;;;2.63;;
9712;SDS011;4895;50.926;6.870;2023-07-30T04:56:29;9.00;;;2.67;;
9712;SDS011;4895;50.926;6.870;2023-07-30T04:58:54;6.13;;;2.73;;
9712;SDS011;4895;50.926;6.870;2023-07-30T05:01:19;8.63;;;2.53;;
9712;SDS011;4895;50.926;6.870;2023-07-30T05:03:45;14.40;;;2.80;;
9712;SDS011;4895;50.926;6.870;2023-07-30T05:06:10;13.00;;;2.77;;
9712;SDS011;4895;50.926;6.870;2023-07-30T05:08:35;9.83;;;2.93;;
9712;SDS011;4895;50.926;6.870;2023-07-30T05:11:00;6.37;;;2.63;;
9712;SDS011;4895;50.926;6.870;2023-07-30T05:13:26;7.80;;;2.97;;
9712;SDS011;4895;50.926;6.870;2023-07-30T05:15:51;7.03;;;3.20;;
9712;SDS011;4895;50.926;6.870;2023-07-30T05:18:16;11.07;;;2.90;;
9712;SDS011;4895;50.926;6.870;2023-07-30T05:20:41;9.50;;;2.83;;
9712;SDS011;4895;50.926;6.870;2023-07-30T05:23:07;10.10;;;2.47;;
9712;SDS011;4895;50.926;6.870;2023-07-30T05:25:32;11.30;;;2.83;;
9712;SDS011;4895;50.926;6.870;2023-07-30T05:27:57;7.67;;;2.30;;
9712;SDS011;4895;50.926;6.870;2023-07-30T05:30:23;16.43;;;3.43;;
9712;SDS011;4895;50.926;6.870;2023-07-30T05:32:48;11.77;;;2.73;;
9712;SDS011;4895;50.926;6.870;2023-07-30T05:35:13;6.63;;;2.70;;
9712;SDS011;4895;50.926;6.870;2023-07-30T05:37:38;13.57;;;2.40;;
9712;SDS011;4895;50.926;6.870;2023-07-30T05:40:04;10.77;;;2.20;;
9712;SDS011;4895;50.926;6.870;2023-07-30T05:42:30;10.90;;;2.50;;
9712;SDS011;4895;50.926;6.870;2023-07-30T05:44:55;5.43;;;2.47;;
9712;SDS011;4895;50.926;6.870;2023-07-30T05:47:20;12.83;;;2.97;;
9712;SDS011;4895;50.926;6.870;2023-07-30T05:49:45;13.50;;;2.77;;
9712;SDS011;4895;50.926;6.870;2023-07-30T05:52:11;9.63;;;2.50;;
9712;SDS011;4895;50.926;6.870;2023-07-30T05:54:36;10.97;;;3.13;;
9712;SDS011;4895;50.926;6.870;2023-07-30T05:57:01;11.63;;;2.53;;
9712;SDS011;4895;50.926;6.870;2023-07-30T05:59:27;13.23;;;2.40;;
9712;SDS011;4895;50.926;6.870;2023-07-30T06:01:52;7.77;;;2.70;;
9712;SDS011;4895;50.926;6.870;2023-07-30T06:04:17;11.40;;;3.30;;
9712;SDS011;4895;50.926;6.870;2023-07-30T06:06:42;12.13;;;2.60;;
9712;SDS011;4895;50.926;6.870;2023-07-30T06:09:08;9.53;;;2.50;;
9712;SDS011;4895;50.926;6.870;2023-07-30T06:11:33;12.23;;;3.50;;
9712;SDS011;4895;50.926;6.870;2023-07-30T06:13:58;11.23;;;2.90;;
9712;SDS011;4895;50.926;6.870;2023-07-30T06:16:23;6.50;;;2.30;;
9712;SDS011;4895;50.926;6.870;2023-07-30T06:18:49;7.93;;;2.60;;
9712;SDS011;4895;50.926;6.870;2023-07-30T06:21:14;5.07;;;1.90;;
9712;SDS011;4895;50.926;6.870;2023-07-30T06:23:40;9.20;;;2.90;;
9712;SDS011;4895;50.926;6.870;2023-07-30T06:26:05;11.20;;;2.60;;
9712;SDS011;4895;50.926;6.870;2023-07-30T06:28:30;9.07;;;2.50;;
9712;SDS011;4895;50.926;6.870;2023-07-30T06:30:55;7.37;;;2.50;;
9712;SDS011;4895;50.926;6.870;2023-07-30T06:33:24;11.90;;;2.37;;
9712;SDS011;4895;50.926;6.870;2023-07-30T06:35:50;12.63;;;2.07;;
9712;SDS011;4895;50.926;6.870;2023-07-30T06:38:15;11.37;;;2.20;;
9712;SDS011;4895;50.926;6.870;2023-07-30T06:40:40;7.40;;;2.70;;
9712;SDS011;4895;50.926;6.870;2023-07-30T06:43:05;7.03;;;1.93;;
9712;SDS011;4895;50.926;6.870;2023-07-30T06:45:31;9.53;;;2.50;;
9712;SDS011;4895;50.926;6.870;2023-07-30T06:47:56;5.97;;;1.90;;
9712;SDS011;4895;50.926;6.870;2023-07-30T06:50:21;4.93;;;2.10;;
9712;SDS011;4895;50.926;6.870;2023-07-30T06:52:46;6.00;;;2.03;;
9712;SDS011;4895;50.926;6.870;2023-07-30T06:55:12;4.53;;;1.50;;
9712;SDS011;4895;50.926;6.870;2023-07-30T06:57:37;8.80;;;2.20;;
9712;SDS011;4895;50.926;6.870;2023-07-30T07:00:02;4.63;;;1.83;;
9712;SDS011;4895;50.926;6.870;2023-07-30T07:02:28;4.93;;;2.00;;
9712;SDS011;4895;50.926;6.870;2023-07-30T07:04:54;6.23;;;1.63;;
9712;SDS011;4895;50.926;6.870;2023-07-30T07:07:19;7.50;;;1.80;;
9712;SDS011;4895;50.926;6.870;2023-07-30T07:09:45;8.73;;;1.97;;
9712;SDS011;4895;50.926;6.870;2023-07-30T07:12:10;5.80;;;2.13;;
9712;SDS011;4895;50.926;6.870;2023-07-30T07:14:36;5.60;;;1.93;;
9712;SDS011;4895;50.926;6.870;2023-07-30T07:17:01;8.70;;;2.30;;
9712;SDS011;4895;50.926;6.870;2023-07-30T07:19:26;7.67;;;1.97;;
9712;SDS011;4895;50.926;6.870;2023-07-30T07:21:52;12.53;;;2.13;;
9712;SDS011;4895;50.926;6.870;2023-07-30T07:24:17;8.30;;;2.40;;
9712;SDS011;4895;50.926;6.870;2023-07-30T07:26:42;7.30;;;2.03;;
9712;SDS011;4895;50.926;6.870;2023-07-30T07:29:09;6.67;;;2.00;;
9712;SDS011;4895;50.926;6.870;2023-07-30T07:31:34;8.13;;;2.10;;
9712;SDS011;4895;50.926;6.870;2023-07-30T07:34:00;10.03;;;2.13;;
9712;SDS011;4895;50.926;6.870;2023-07-30T07:36:25;7.13;;;2.03;;
9712;SDS011;4895;50.926;6.870;2023-07-30T07:38:50;3.27;;;1.57;;
9712;SDS011;4895;50.926;6.870;2023-07-30T07:41:16;10.77;;;2.13;;
9712;SDS011;4895;50.926;6.870;2023-07-30T07:43:42;10.63;;;2.40;;
9712;SDS011;4895;50.926;6.870;2023-07-30T07:46:08;11.03;;;2.60;;
9712;SDS011;4895;50.926;6.870;2023-07-30T07:48:38;8.63;;;2.10;;
9712;SDS011;4895;50.926;6.870;2023-07-30T07:51:06;11.63;;;2.83;;
9712;SDS011;4895;50.926;6.870;2023-07-30T07:53:31;12.30;;;2.60;;
9712;SDS011;4895;50.926;6.870;2023-07-30T07:55:57;12.50;;;2.80;;
9712;SDS011;4895;50.926;6.870;2023-07-30T07:58:22;8.40;;;2.67;;
9712;SDS011;4895;50.926;6.870;2023-07-30T08:00:47;7.13;;;2.43;;
9712;SDS011;4895;50.926;6.870;2023-07-30T08:03:12;16.83;;;3.03;;
9712;SDS011;4895;50.926;6.870;2023-07-30T08:05:38;9.37;;;2.70;;
9712;SDS011;4895;50.926;6.870;2023-07-30T08:08:03;17.23;;;2.90;;
9712;SDS011;4895;50.926;6.870;2023-07-30T08:10:28;15.93;;;3.43;;
9712;SDS011;4895;50.926;6.870;2023-07-30T08:12:54;11.03;;;2.40;;
9712;SDS011;4895;50.926;6.870;2023-07-30T08:15:19;12.27;;;3.33;;
9712;SDS011;4895;50.926;6.870;2023-07-30T08:17:45;12.43;;;2.77;;
9712;SDS011;4895;50.926;6.870;2023-07-30T08:20:10;8.77;;;2.73;;
9712;SDS011;4895;50.926;6.870;2023-07-30T08:22:36;13.37;;;2.80;;
9712;SDS011;4895;50.926;6.870;2023-07-30T08:25:02;14.43;;;3.10;;
9712;SDS011;4895;50.926;6.870;2023-07-30T08:27:28;15.97;;;3.90;;
9712;SDS011;4895;50.926;6.870;2023-07-30T08:29:53;12.60;;;2.57;;
9712;SDS011;4895;50.926;6.870;2023-07-30T08:32:18;11.50;;;3.20;;
9712;SDS011;4895;50.926;6.870;2023-07-30T08:34:44;11.33;;;2.87;;
9712;SDS011;4895;50.926;6.870;2023-07-30T08:37:09;20.13;;;3.40;;
9712;SDS011;4895;50.926;6.870;2023-07-30T08:39:35;14.93;;;3.40;;
9712;SDS011;4895;50.926;6.870;2023-07-30T08:42:00;9.23;;;2.80;;
9712;SDS011;4895;50.926;6.870;2023-07-30T08:44:26;22.63;;;4.20;;
9712;SDS011;4895;50.926;6.870;2023-07-30T08:46:51;13.70;;;3.80;;
9712;SDS011;4895;50.926;6.870;2023-07-30T08:49:17;7.57;;;2.80;;
9712;SDS011;4895;50.926;6.870;2023-07-30T08:51:42;23.67;;;3.80;;
9712;SDS011;4895;50.926;6.870;2023-07-30T08:54:09;19.93;;;3.70;;
9712;SDS011;4895;50.926;6.870;2023-07-30T08:56:35;11.43;;;2.80;;
9712;SDS011;4895;50.926;6.870;2023-07-30T08:59:00;11.40;;;3.13;;
9712;SDS011;4895;50.926;6.870;2023-07-30T09:01:29;11.87;;;2.97;;
9712;SDS011;4895;50.926;6.870;2023-07-30T09:03:58;11.33;;;3.37;;
9712;SDS011;4895;50.926;6.870;2023-07-30T09:06:27;15.63;;;3.10;;
9712;SDS011;4895;50.926;6.870;2023-07-30T09:08:52;11.13;;;2.90;;
9712;SDS011;4895;50.926;6.870;2023-07-30T09:11:18;12.73;;;3.27;;
9712;SDS011;4895;50.926;6.870;2023-07-30T09:13:43;7.43;;;2.63;;
9712;SDS011;4895;50.926;6.870;2023-07-30T09:16:09;13.03;;;3.23;;
9712;SDS011;4895;50.926;6.870;2023-07-30T09:18:41;9.30;;;2.80;;
9712;SDS011;4895;50.926;6.870;2023-07-30T09:21:09;16.57;;;2.90;;
9712;SDS011;4895;50.926;6.870;2023-07-30T09:23:42;6.33;;;2.00;;
9712;SDS011;4895;50.926;6.870;2023-07-30T09:26:10;13.60;;;3.20;;
9712;SDS011;4895;50.926;6.870;2023-07-30T09:28:35;14.87;;;2.90;;
9712;SDS011;4895;50.926;6.870;2023-07-30T09:31:01;16.33;;;3.17;;
9712;SDS011;4895;50.926;6.870;2023-07-30T09:33:27;12.03;;;2.97;;
9712;SDS011;4895;50.926;6.870;2023-07-30T09:35:53;14.20;;;3.00;;
9712;SDS011;4895;50.926;6.870;2023-07-30T09:38:19;9.10;;;3.07;;
9712;SDS011;4895;50.926;6.870;2023-07-30T09:40:45;13.40;;;2.80;;
9712;SDS011;4895;50.926;6.870;2023-07-30T09:43:12;12.17;;;2.90;;
9712;SDS011;4895;50.926;6.870;2023-07-30T09:45:38;8.80;;;2.70;;
9712;SDS011;4895;50.926;6.870;2023-07-30T09:48:04;7.90;;;2.60;;
9712;SDS011;4895;50.926;6.870;2023-07-30T09:50:30;9.60;;;2.70;;
9712;SDS011;4895;50.926;6.870;2023-07-30T09:52:57;11.13;;;2.37;;
9712;SDS011;4895;50.926;6.870;2023-07-30T09:55:23;11.70;;;2.30;;
9712;SDS011;4895;50.926;6.870;2023-07-30T09:57:49;9.40;;;2.50;;
9712;SDS011;4895;50.926;6.870;2023-07-30T10:00:14;18.37;;;2.80;;
9712;SDS011;4895;50.926;6.870;2023-07-30T10:02:42;8.10;;;2.30;;
9712;SDS011;4895;50.926;6.870;2023-07-30T10:05:11;10.47;;;2.20;;
9712;SDS011;4895;50.926;6.870;2023-07-30T10:07:40;8.33;;;2.37;;
9712;SDS011;4895;50.926;6.870;2023-07-30T10:10:23;17.70;;;3.00;;
9712;SDS011;4895;50.926;6.870;2023-07-30T10:12:49;8.53;;;2.30;;
9712;SDS011;4895;50.926;6.870;2023-07-30T10:15:18;12.63;;;2.50;;
9712;SDS011;4895;50.926;6.870;2023-07-30T10:17:45;11.73;;;2.43;;
9712;SDS011;4895;50.926;6.870;2023-07-30T10:20:20;7.77;;;2.50;;
9712;SDS011;4895;50.926;6.870;2023-07-30T10:22:47;12.23;;;2.10;;
9712;SDS011;4895;50.926;6.870;2023-07-30T10:25:16;9.13;;;2.40;;
9712;SDS011;4895;50.926;6.870;2023-07-30T10:27:45;14.80;;;2.70;;
9712;SDS011;4895;50.926;6.870;2023-07-30T10:30:18;9.33;;;2.70;;
9712;SDS011;4895;50.926;6.870;2023-07-30T10:38:18;11.77;;;2.53;;
9712;SDS011;4895;50.926;6.870;2023-07-30T10:40:59;8.63;;;2.43;;
9712;SDS011;4895;50.926;6.870;2023-07-30T10:43:29;9.57;;;2.57;;
9712;SDS011;4895;50.926;6.870;2023-07-30T10:45:55;10.50;;;2.10;;
9712;SDS011;4895;50.926;6.870;2023-07-30T10:48:29;16.83;;;3.10;;
9712;SDS011;4895;50.926;6.870;2023-07-30T10:50:55;10.90;;;2.10;;
9712;SDS011;4895;50.926;6.870;2023-07-30T10:53:21;10.10;;;2.40;;
9712;SDS011;4895;50.926;6.870;2023-07-30T10:55:46;15.73;;;2.50;;
9712;SDS011;4895;50.926;6.870;2023-07-30T10:58:11;13.30;;;2.00;;
9712;SDS011;4895;50.926;6.870;2023-07-30T11:00:38;9.67;;;2.67;;
9712;SDS011;4895;50.926;6.870;2023-07-30T11:03:03;7.80;;;2.00;;
9712;SDS011;4895;50.926;6.870;2023-07-30T11:05:29;10.53;;;1.80;;
9712;SDS011;4895;50.926;6.870;2023-07-30T11:07:55;11.60;;;2.40;;
9712;SDS011;4895;50.926;6.870;2023-07-30T11:10:21;7.33;;;2.03;;
9712;SDS011;4895;50.926;6.870;2023-07-30T11:12:48;8.13;;;1.93;;
9712;SDS011;4895;50.926;6.870;2023-07-30T11:15:14;9.50;;;2.23;;
9712;SDS011;4895;50.926;6.870;2023-07-30T11:17:40;6.13;;;1.40;;
9712;SDS011;4895;50.926;6.870;2023-07-30T11:20:05;9.93;;;2.57;;
9712;SDS011;4895;50.926;6.870;2023-07-30T11:22:32;6.73;;;2.00;;
9712;SDS011;4895;50.926;6.870;2023-07-30T11:24:58;7.30;;;2.37;;
9712;SDS011;4895;50.926;6.870;2023-07-30T11:27:23;7.80;;;2.13;;
9712;SDS011;4895;50.926;6.870;2023-07-30T11:29:55;7.53;;;1.60;;
9712;SDS011;4895;50.926;6.870;2023-07-30T11:32:21;6.33;;;1.97;;
9712;SDS011;4895;50.926;6.870;2023-07-30T11:34:48;7.03;;;1.83;;
9712;SDS011;4895;50.926;6.870;2023-07-30T11:37:14;7.90;;;1.87;;
9712;SDS011;4895;50.926;6.870;2023-07-30T11:39:39;5.57;;;1.43;;
9712;SDS011;4895;50.926;6.870;2023-07-30T11:42:05;8.70;;;1.50;;
9712;SDS011;4895;50.926;6.870;2023-07-30T11:44:39;3.90;;;1.83;;
9712;SDS011;4895;50.926;6.870;2023-07-30T11:47:05;8.30;;;2.03;;
9712;SDS011;4895;50.926;6.870;2023-07-30T11:49:31;10.77;;;2.57;;
9712;SDS011;4895;50.926;6.870;2023-07-30T11:52:09;13.00;;;2.40;;
9712;SDS011;4895;50.926;6.870;2023-07-30T11:54:35;4.83;;;1.53;;
9712;SDS011;4895;50.926;6.870;2023-07-30T11:57:00;7.00;;;1.83;;
9712;SDS011;4895;50.926;6.870;2023-07-30T11:59:26;5.07;;;1.77;;
9712;SDS011;4895;50.926;6.870;2023-07-30T12:01:51;6.97;;;2.03;;
9712;SDS011;4895;50.926;6.870;2023-07-30T12:04:16;15.50;;;2.00;;
9712;SDS011;4895;50.926;6.870;2023-07-30T12:06:43;11.57;;;2.07;;
9712;SDS011;4895;50.926;6.870;2023-07-30T12:11:59;10.33;;;2.37;;
9712;SDS011;4895;50.926;6.870;2023-07-30T12:14:26;8.27;;;2.37;;
9712;SDS011;4895;50.926;6.870;2023-07-30T12:17:04;6.00;;;2.17;;
9712;SDS011;4895;50.926;6.870;2023-07-30T12:19:29;7.90;;;2.20;;
9712;SDS011;4895;50.926;6.870;2023-07-30T12:21:55;10.53;;;2.70;;
9712;SDS011;4895;50.926;6.870;2023-07-30T12:24:20;26.60;;;3.53;;
9712;SDS011;4895;50.926;6.870;2023-07-30T12:26:47;7.10;;;1.80;;
9712;SDS011;4895;50.926;6.870;2023-07-30T12:29:12;8.97;;;3.07;;
9712;SDS011;4895;50.926;6.870;2023-07-30T12:31:37;7.47;;;2.40;;
9712;SDS011;4895;50.926;6.870;2023-07-30T12:34:03;8.17;;;1.93;;
9712;SDS011;4895;50.926;6.870;2023-07-30T12:36:28;9.53;;;3.03;;
9712;SDS011;4895;50.926;6.870;2023-07-30T12:38:53;6.13;;;2.20;;
9712;SDS011;4895;50.926;6.870;2023-07-30T12:41:19;6.63;;;2.33;;
9712;SDS011;4895;50.926;6.870;2023-07-30T12:43:51;10.07;;;2.50;;
9712;SDS011;4895;50.926;6.870;2023-07-30T12:46:18;8.43;;;2.37;;
9712;SDS011;4895;50.926;6.870;2023-07-30T12:48:43;8.00;;;2.60;;
9712;SDS011;4895;50.926;6.870;2023-07-30T12:51:08;6.57;;;2.17;;
9712;SDS011;4895;50.926;6.870;2023-07-30T12:53:34;7.63;;;2.33;;
9712;SDS011;4895;50.926;6.870;2023-07-30T12:55:59;5.70;;;2.00;;
9712;SDS011;4895;50.926;6.870;2023-07-30T12:58:24;12.70;;;2.90;;
9712;SDS011;4895;50.926;6.870;2023-07-30T13:00:50;9.80;;;1.93;;
9712;SDS011;4895;50.926;6.870;2023-07-30T13:03:15;8.83;;;1.90;;
9712;SDS011;4895;50.926;6.870;2023-07-30T13:05:41;7.53;;;2.20;;
9712;SDS011;4895;50.926;6.870;2023-07-30T13:08:06;5.60;;;2.13;;
9712;SDS011;4895;50.926;6.870;2023-07-30T13:10:31;8.87;;;2.60;;
9712;SDS011;4895;50.926;6.870;2023-07-30T13:12:57;9.53;;;2.23;;
9712;SDS011;4895;50.926;6.870;2023-07-30T13:15:22;7.13;;;2.57;;
9712;SDS011;4895;50.926;6.870;2023-07-30T13:17:47;17.63;;;2.53;;
9712;SDS011;4895;50.926;6.870;2023-07-30T13:20:12;7.90;;;2.30;;
9712;SDS011;4895;50.926;6.870;2023-07-30T13:22:38;7.73;;;2.70;;
9712;SDS011;4895;50.926;6.870;2023-07-30T13:25:03;8.40;;;2.20;;
9712;SDS011;4895;50.926;6.870;2023-07-30T13:27:28;7.00;;;2.03;;
9712;SDS011;4895;50.926;6.870;2023-07-30T13:29:54;5.77;;;1.97;;
9712;SDS011;4895;50.926;6.870;2023-07-30T13:32:19;6.10;;;1.77;;
9712;SDS011;4895;50.926;6.870;2023-07-30T13:34:44;7.67;;;2.70;;
9712;SDS011;4895;50.926;6.870;2023-07-30T13:37:10;8.93;;;1.93;;
9712;SDS011;4895;50.926;6.870;2023-07-30T13:39:35;8.70;;;2.50;;
9712;SDS011;4895;50.926;6.870;2023-07-30T13:42:00;8.53;;;2.10;;
9712;SDS011;4895;50.926;6.870;2023-07-30T13:44:25;6.33;;;1.87;;
9712;SDS011;4895;50.926;6.870;2023-07-30T13:46:51;8.20;;;2.23;;
9712;SDS011;4895;50.926;6.870;2023-07-30T13:49:16;8.87;;;2.13;;
9712;SDS011;4895;50.926;6.870;2023-07-30T13:51:42;11.70;;;2.57;;
9712;SDS011;4895;50.926;6.870;2023-07-30T13:54:07;7.00;;;1.80;;
9712;SDS011;4895;50.926;6.870;2023-07-30T13:56:33;6.07;;;2.50;;
9712;SDS011;4895;50.926;6.870;2023-07-30T13:58:58;5.33;;;1.90;;
9712;SDS011;4895;50.926;6.870;2023-07-30T14:01:24;8.20;;;2.27;;
9712;SDS011;4895;50.926;6.870;2023-07-30T14:03:49;8.37;;;2.00;;
9712;SDS011;4895;50.926;6.870;2023-07-30T14:06:14;10.70;;;2.10;;
9712;SDS011;4895;50.926;6.870;2023-07-30T14:08:39;7.57;;;2.00;;
9712;SDS011;4895;50.926;6.870;2023-07-30T14:11:05;7.43;;;2.03;;
9712;SDS011;4895;50.926;6.870;2023-07-30T14:13:30;5.93;;;1.73;;
9712;SDS011;4895;50.926;6.870;2023-07-30T14:15:56;6.53;;;1.67;;
9712;SDS011;4895;50.926;6.870;2023-07-30T14:18:22;9.37;;;2.27;;
9712;SDS011;4895;50.926;6.870;2023-07-30T14:20:47;8.53;;;2.83;;
9712;SDS011;4895;50.926;6.870;2023-07-30T14:23:12;10.73;;;1.63;;
9712;SDS011;4895;50.926;6.870;2023-07-30T14:25:38;15.13;;;3.30;;
9712;SDS011;4895;50.926;6.870;2023-07-30T14:28:04;8.57;;;1.67;;
9712;SDS011;4895;50.926;6.870;2023-07-30T14:30:29;8.30;;;1.90;;
9712;SDS011;4895;50.926;6.870;2023-07-30T14:32:55;6.83;;;2.00;;
9712;SDS011;4895;50.926;6.870;2023-07-30T14:35:20;8.77;;;2.40;;
9712;SDS011;4895;50.926;6.870;2023-07-30T14:37:45;10.67;;;1.90;;
9712;SDS011;4895;50.926;6.870;2023-07-30T14:40:11;6.33;;;1.97;;
9712;SDS011;4895;50.926;6.870;2023-07-30T14:42:36;9.10;;;1.93;;
9712;SDS011;4895;50.926;6.870;2023-07-30T14:45:01;7.57;;;2.43;;
9712;SDS011;4895;50.926;6.870;2023-07-30T14:47:27;7.37;;;2.10;;
9712;SDS011;4895;50.926;6.870;2023-07-30T14:49:52;11.13;;;2.00;;
9712;SDS011;4895;50.926;6.870;2023-07-30T14:52:17;8.50;;;2.00;;
9712;SDS011;4895;50.926;6.870;2023-07-30T14:54:43;9.43;;;2.17;;
9712;SDS011;4895;50.926;6.870;2023-07-30T14:57:09;10.67;;;2.40;;
9712;SDS011;4895;50.926;6.870;2023-07-30T14:59:34;8.83;;;2.27;;
9712;SDS011;4895;50.926;6.870;2023-07-30T15:02:00;9.97;;;2.47;;
9712;SDS011;4895;50.926;6.870;2023-07-30T15:04:25;5.13;;;1.90;;
9712;SDS011;4895;50.926;6.870;2023-07-30T15:06:50;6.40;;;2.20;;
9712;SDS011;4895;50.926;6.870;2023-07-30T15:09:16;5.50;;;1.87;;